sensor_id;sensor_type;location;lat;lon;timestamp;P1;durP1;ratioP1;P2;durP2;ratioP2
32746;SDS011;19118;50.860;13.662;2022-12-18T00:01:38;15.80;;;5.55;;
32746;SDS011;19118;50.860;13.662;2022-12-18T00:06:38;14.85;;;6.38;;
32746;SDS011;19118;50.860;13.662;2022-12-18T00:11:38;17.02;;;7.32;;
32746;SDS011;19118;50.860;13.662;2022-12-18T00:16:39;18.02;;;7.45;;
32746;SDS011;19118;50.860;13.662;2022-12-18T00:21:42;20.17;;;7.25;;
32746;SDS011;19118;50.860;13.662;2022-12-18T00:26:43;23.30;;;6.88;;
32746;SDS011;19118;50.860;13.662;2022-12-18T00:31:45;17.20;;;6.93;;
32746;SDS011;19118;50.860;13.662;2022-12-18T00:36:46;16.35;;;6.43;;
32746;SDS011;19118;50.860;13.662;2022-12-18T00:41:47;14.10;;;5.82;;
32746;SDS011;19118;50.860;13.662;2022-12-18T00:47:06;14.05;;;5.57;;
32746;SDS011;19118;50.860;13.662;2022-12-18T00:52:07;15.90;;;6.43;;
32746;SDS011;19118;50.860;13.662;2022-12-18T00:57:07;15.00;;;5.47;;
32746;SDS011;19118;50.860;13.662;2022-12-18T01:02:07;11.82;;;5.05;;
32746;SDS011;19118;50.860;13.662;2022-12-18T01:07:08;18.98;;;5.55;;
32746;SDS011;19118;50.860;13.662;2022-12-18T01:12:08;16.58;;;5.35;;
32746;SDS011;19118;50.860;13.662;2022-12-18T01:17:08;14.57;;;5.55;;
32746;SDS011;19118;50.860;13.662;2022-12-18T01:22:09;15.52;;;6.10;;
32746;SDS011;19118;50.860;13.662;2022-12-18T01:27:09;13.88;;;4.95;;
32746;SDS011;19118;50.860;13.662;2022-12-18T01:32:10;13.40;;;5.03;;
32746;SDS011;19118;50.860;13.662;2022-12-18T01:37:10;12.65;;;4.85;;
32746;SDS011;19118;50.860;13.662;2022-12-18T01:42:11;15.45;;;4.38;;
32746;SDS011;19118;50.860;13.662;2022-12-18T01:47:15;14.68;;;5.03;;
32746;SDS011;19118;50.860;13.662;2022-12-18T01:52:20;12.45;;;5.07;;
32746;SDS011;19118;50.860;13.662;2022-12-18T01:57:21;12.73;;;5.00;;
32746;SDS011;19118;50.860;13.662;2022-12-18T02:02:24;14.75;;;5.45;;
32746;SDS011;19118;50.860;13.662;2022-12-18T02:12:54;11.93;;;4.95;;
32746;SDS011;19118;50.860;13.662;2022-12-18T02:18:04;11.82;;;4.85;;
32746;SDS011;19118;50.860;13.662;2022-12-18T02:28:22;16.33;;;5.78;;
32746;SDS011;19118;50.860;13.662;2022-12-18T02:33:27;12.85;;;4.70;;
32746;SDS011;19118;50.860;13.662;2022-12-18T02:38:30;11.63;;;5.15;;
32746;SDS011;19118;50.860;13.662;2022-12-18T02:48:41;15.48;;;4.80;;
32746;SDS011;19118;50.860;13.662;2022-12-18T02:53:45;13.00;;;5.78;;
32746;SDS011;19118;50.860;13.662;2022-12-18T02:58:53;14.60;;;5.57;;
32746;SDS011;19118;50.860;13.662;2022-12-18T03:04:19;10.60;;;4.25;;
32746;SDS011;19118;50.860;13.662;2022-12-18T03:09:31;14.30;;;4.47;;
32746;SDS011;19118;50.860;13.662;2022-12-18T03:14:35;18.02;;;4.97;;
32746;SDS011;19118;50.860;13.662;2022-12-18T03:19:39;10.90;;;4.95;;
32746;SDS011;19118;50.860;13.662;2022-12-18T03:24:42;12.13;;;4.97;;
32746;SDS011;19118;50.860;13.662;2022-12-18T03:29:52;15.18;;;4.57;;
32746;SDS011;19118;50.860;13.662;2022-12-18T03:35:08;10.48;;;3.50;;
32746;SDS011;19118;50.860;13.662;2022-12-18T03:40:12;7.97;;;4.28;;
32746;SDS011;19118;50.860;13.662;2022-12-18T03:45:15;10.73;;;4.47;;
32746;SDS011;19118;50.860;13.662;2022-12-18T03:55:46;13.13;;;5.15;;
32746;SDS011;19118;50.860;13.662;2022-12-18T04:00:50;12.07;;;4.20;;
32746;SDS011;19118;50.860;13.662;2022-12-18T04:05:54;17.30;;;5.00;;
32746;SDS011;19118;50.860;13.662;2022-12-18T04:10:57;10.90;;;4.28;;
32746;SDS011;19118;50.860;13.662;2022-12-18T04:15:58;11.77;;;5.85;;
32746;SDS011;19118;50.860;13.662;2022-12-18T04:20:59;12.43;;;4.28;;
32746;SDS011;19118;50.860;13.662;2022-12-18T04:26:00;11.02;;;4.55;;
32746;SDS011;19118;50.860;13.662;2022-12-18T04:31:14;9.98;;;4.07;;
32746;SDS011;19118;50.860;13.662;2022-12-18T04:36:14;13.32;;;6.03;;
32746;SDS011;19118;50.860;13.662;2022-12-18T04:41:15;11.75;;;4.50;;
32746;SDS011;19118;50.860;13.662;2022-12-18T04:46:18;10.50;;;3.53;;
32746;SDS011;19118;50.860;13.662;2022-12-18T04:51:19;10.85;;;4.68;;
32746;SDS011;19118;50.860;13.662;2022-12-18T04:56:19;10.98;;;3.05;;
32746;SDS011;19118;50.860;13.662;2022-12-18T05:01:20;11.60;;;4.40;;
32746;SDS011;19118;50.860;13.662;2022-12-18T05:06:21;8.15;;;3.33;;
32746;SDS011;19118;50.860;13.662;2022-12-18T05:11:21;5.50;;;2.65;;
32746;SDS011;19118;50.860;13.662;2022-12-18T05:16:22;8.52;;;3.50;;
32746;SDS011;19118;50.860;13.662;2022-12-18T05:21:22;7.95;;;2.88;;
32746;SDS011;19118;50.860;13.662;2022-12-18T05:26:22;10.07;;;3.20;;
32746;SDS011;19118;50.860;13.662;2022-12-18T05:31:23;7.38;;;3.25;;
32746;SDS011;19118;50.860;13.662;2022-12-18T05:36:23;9.85;;;3.53;;
32746;SDS011;19118;50.860;13.662;2022-12-18T05:41:24;14.80;;;2.92;;
32746;SDS011;19118;50.860;13.662;2022-12-18T05:46:24;9.55;;;3.67;;
32746;SDS011;19118;50.860;13.662;2022-12-18T05:51:25;8.85;;;2.78;;
32746;SDS011;19118;50.860;13.662;2022-12-18T05:56:25;18.52;;;3.53;;
32746;SDS011;19118;50.860;13.662;2022-12-18T06:01:26;11.23;;;3.33;;
32746;SDS011;19118;50.860;13.662;2022-12-18T06:06:27;11.10;;;3.33;;
32746;SDS011;19118;50.860;13.662;2022-12-18T06:11:27;22.92;;;7.82;;
32746;SDS011;19118;50.860;13.662;2022-12-18T06:16:28;11.55;;;4.13;;
32746;SDS011;19118;50.860;13.662;2022-12-18T06:21:30;10.65;;;3.97;;
32746;SDS011;19118;50.860;13.662;2022-12-18T06:26:31;9.85;;;4.38;;
32746;SDS011;19118;50.860;13.662;2022-12-18T06:31:31;17.80;;;5.50;;
32746;SDS011;19118;50.860;13.662;2022-12-18T06:36:32;21.77;;;9.23;;
32746;SDS011;19118;50.860;13.662;2022-12-18T06:41:32;52.38;;;14.90;;
32746;SDS011;19118;50.860;13.662;2022-12-18T06:46:33;16.92;;;7.05;;
32746;SDS011;19118;50.860;13.662;2022-12-18T06:51:33;19.13;;;6.97;;
32746;SDS011;19118;50.860;13.662;2022-12-18T06:56:34;12.15;;;5.78;;
32746;SDS011;19118;50.860;13.662;2022-12-18T07:01:34;24.20;;;7.93;;
32746;SDS011;19118;50.860;13.662;2022-12-18T07:06:35;9.95;;;4.65;;
32746;SDS011;19118;50.860;13.662;2022-12-18T07:11:35;11.18;;;4.60;;
32746;SDS011;19118;50.860;13.662;2022-12-18T07:16:36;20.92;;;4.95;;
32746;SDS011;19118;50.860;13.662;2022-12-18T07:21:36;11.70;;;4.80;;
32746;SDS011;19118;50.860;13.662;2022-12-18T07:26:36;15.20;;;5.55;;
32746;SDS011;19118;50.860;13.662;2022-12-18T07:31:37;12.10;;;5.32;;
32746;SDS011;19118;50.860;13.662;2022-12-18T07:36:37;14.45;;;4.53;;
32746;SDS011;19118;50.860;13.662;2022-12-18T07:41:38;12.57;;;3.70;;
32746;SDS011;19118;50.860;13.662;2022-12-18T07:46:42;17.92;;;5.40;;
32746;SDS011;19118;50.860;13.662;2022-12-18T07:51:43;13.23;;;5.20;;
32746;SDS011;19118;50.860;13.662;2022-12-18T07:56:46;13.10;;;4.95;;
32746;SDS011;19118;50.860;13.662;2022-12-18T08:01:46;12.18;;;5.75;;
32746;SDS011;19118;50.860;13.662;2022-12-18T08:06:46;12.80;;;5.82;;
32746;SDS011;19118;50.860;13.662;2022-12-18T08:11:47;15.98;;;5.47;;
32746;SDS011;19118;50.860;13.662;2022-12-18T08:16:47;17.15;;;6.50;;
32746;SDS011;19118;50.860;13.662;2022-12-18T08:21:47;21.48;;;7.93;;
32746;SDS011;19118;50.860;13.662;2022-12-18T08:26:48;24.17;;;9.70;;
32746;SDS011;19118;50.860;13.662;2022-12-18T08:31:48;34.42;;;12.32;;
32746;SDS011;19118;50.860;13.662;2022-12-18T08:36:49;124.20;;;34.53;;
32746;SDS011;19118;50.860;13.662;2022-12-18T08:41:49;236.55;;;62.72;;
32746;SDS011;19118;50.860;13.662;2022-12-18T08:47:08;35.47;;;13.75;;
32746;SDS011;19118;50.860;13.662;2022-12-18T08:52:08;56.35;;;20.17;;
32746;SDS011;19118;50.860;13.662;2022-12-18T08:57:09;23.45;;;10.27;;
32746;SDS011;19118;50.860;13.662;2022-12-18T09:02:10;40.05;;;14.40;;
32746;SDS011;19118;50.860;13.662;2022-12-18T09:07:11;18.80;;;7.15;;
32746;SDS011;19118;50.860;13.662;2022-12-18T09:12:11;19.85;;;8.05;;
32746;SDS011;19118;50.860;13.662;2022-12-18T09:17:12;36.75;;;13.27;;
32746;SDS011;19118;50.860;13.662;2022-12-18T09:22:12;27.70;;;8.88;;
32746;SDS011;19118;50.860;13.662;2022-12-18T09:27:12;31.48;;;11.00;;
32746;SDS011;19118;50.860;13.662;2022-12-18T09:32:13;53.92;;;18.30;;
32746;SDS011;19118;50.860;13.662;2022-12-18T09:37:13;68.90;;;24.42;;
32746;SDS011;19118;50.860;13.662;2022-12-18T09:42:21;23.17;;;9.95;;
32746;SDS011;19118;50.860;13.662;2022-12-18T09:47:29;28.80;;;10.23;;
32746;SDS011;19118;50.860;13.662;2022-12-18T09:52:39;37.58;;;11.60;;
32746;SDS011;19118;50.860;13.662;2022-12-18T09:57:45;22.10;;;9.13;;
32746;SDS011;19118;50.860;13.662;2022-12-18T10:02:50;24.45;;;9.15;;
32746;SDS011;19118;50.860;13.662;2022-12-18T10:07:55;22.38;;;7.93;;
32746;SDS011;19118;50.860;13.662;2022-12-18T10:23:39;20.40;;;8.10;;
32746;SDS011;19118;50.860;13.662;2022-12-18T10:28:44;26.23;;;11.07;;
32746;SDS011;19118;50.860;13.662;2022-12-18T10:33:45;22.05;;;9.15;;
32746;SDS011;19118;50.860;13.662;2022-12-18T10:38:45;31.48;;;12.40;;
32746;SDS011;19118;50.860;13.662;2022-12-18T10:43:46;45.65;;;20.45;;
32746;SDS011;19118;50.860;13.662;2022-12-18T10:53:50;37.83;;;15.13;;
32746;SDS011;19118;50.860;13.662;2022-12-18T10:58:58;53.00;;;19.83;;
32746;SDS011;19118;50.860;13.662;2022-12-18T11:04:09;40.03;;;16.38;;
32746;SDS011;19118;50.860;13.662;2022-12-18T11:09:19;33.25;;;13.57;;
32746;SDS011;19118;50.860;13.662;2022-12-18T11:14:23;47.45;;;19.40;;
32746;SDS011;19118;50.860;13.662;2022-12-18T11:19:33;44.28;;;17.00;;
32746;SDS011;19118;50.860;13.662;2022-12-18T11:24:35;37.88;;;15.45;;
32746;SDS011;19118;50.860;13.662;2022-12-18T11:29:37;48.63;;;15.63;;
32746;SDS011;19118;50.860;13.662;2022-12-18T11:34:39;37.83;;;15.85;;
32746;SDS011;19118;50.860;13.662;2022-12-18T11:39:54;36.65;;;14.88;;
32746;SDS011;19118;50.860;13.662;2022-12-18T11:50:14;40.70;;;17.73;;
32746;SDS011;19118;50.860;13.662;2022-12-18T12:00:43;41.75;;;17.23;;
32746;SDS011;19118;50.860;13.662;2022-12-18T12:06:00;32.58;;;13.13;;
32746;SDS011;19118;50.860;13.662;2022-12-18T12:11:18;38.78;;;15.18;;
32746;SDS011;19118;50.860;13.662;2022-12-18T12:22:12;48.65;;;19.67;;
32746;SDS011;19118;50.860;13.662;2022-12-18T12:38:47;48.88;;;16.80;;
32746;SDS011;19118;50.860;13.662;2022-12-18T12:43:52;95.50;;;24.45;;
32746;SDS011;19118;50.860;13.662;2022-12-18T12:49:03;46.92;;;14.82;;
32746;SDS011;19118;50.860;13.662;2022-12-18T12:54:17;43.42;;;14.50;;
32746;SDS011;19118;50.860;13.662;2022-12-18T13:10:13;27.65;;;13.02;;
32746;SDS011;19118;50.860;13.662;2022-12-18T13:20:50;27.23;;;9.73;;
32746;SDS011;19118;50.860;13.662;2022-12-18T13:31:05;25.38;;;11.05;;
32746;SDS011;19118;50.860;13.662;2022-12-18T13:36:12;28.95;;;10.95;;
32746;SDS011;19118;50.860;13.662;2022-12-18T13:46:28;38.95;;;12.65;;
32746;SDS011;19118;50.860;13.662;2022-12-18T13:51:49;27.23;;;11.30;;
32746;SDS011;19118;50.860;13.662;2022-12-18T13:56:51;26.50;;;10.80;;
32746;SDS011;19118;50.860;13.662;2022-12-18T14:01:53;32.33;;;11.07;;
32746;SDS011;19118;50.860;13.662;2022-12-18T14:07:07;26.00;;;9.80;;
32746;SDS011;19118;50.860;13.662;2022-12-18T14:12:14;24.77;;;8.87;;
32746;SDS011;19118;50.860;13.662;2022-12-18T14:17:35;21.73;;;8.70;;
32746;SDS011;19118;50.860;13.662;2022-12-18T14:22:36;24.35;;;10.23;;
32746;SDS011;19118;50.860;13.662;2022-12-18T14:27:37;25.75;;;10.48;;
32746;SDS011;19118;50.860;13.662;2022-12-18T14:32:41;33.58;;;12.07;;
32746;SDS011;19118;50.860;13.662;2022-12-18T14:37:42;99.55;;;32.40;;
32746;SDS011;19118;50.860;13.662;2022-12-18T14:42:42;103.20;;;33.15;;
32746;SDS011;19118;50.860;13.662;2022-12-18T14:47:43;81.07;;;25.27;;
32746;SDS011;19118;50.860;13.662;2022-12-18T14:52:43;36.08;;;11.10;;
32746;SDS011;19118;50.860;13.662;2022-12-18T14:57:44;37.33;;;13.20;;
32746;SDS011;19118;50.860;13.662;2022-12-18T15:02:53;30.20;;;12.40;;
32746;SDS011;19118;50.860;13.662;2022-12-18T15:07:56;35.78;;;13.80;;
32746;SDS011;19118;50.860;13.662;2022-12-18T15:18:00;23.25;;;8.55;;
32746;SDS011;19118;50.860;13.662;2022-12-18T15:28:36;25.63;;;7.88;;
32746;SDS011;19118;50.860;13.662;2022-12-18T15:33:39;29.23;;;10.88;;
32746;SDS011;19118;50.860;13.662;2022-12-18T15:38:50;24.65;;;9.73;;
32746;SDS011;19118;50.860;13.662;2022-12-18T15:43:52;53.55;;;21.50;;
32746;SDS011;19118;50.860;13.662;2022-12-18T15:48:54;30.33;;;11.00;;
32746;SDS011;19118;50.860;13.662;2022-12-18T15:53:56;29.20;;;9.02;;
32746;SDS011;19118;50.860;13.662;2022-12-18T15:58:58;28.23;;;9.25;;
32746;SDS011;19118;50.860;13.662;2022-12-18T16:03:59;24.08;;;8.20;;
32746;SDS011;19118;50.860;13.662;2022-12-18T16:08:59;20.88;;;8.07;;
32746;SDS011;19118;50.860;13.662;2022-12-18T16:14:00;31.75;;;9.45;;
32746;SDS011;19118;50.860;13.662;2022-12-18T16:19:00;24.63;;;7.88;;
32746;SDS011;19118;50.860;13.662;2022-12-18T16:24:00;26.27;;;9.55;;
32746;SDS011;19118;50.860;13.662;2022-12-18T16:29:01;26.75;;;9.38;;
32746;SDS011;19118;50.860;13.662;2022-12-18T16:39:28;26.17;;;9.30;;
32746;SDS011;19118;50.860;13.662;2022-12-18T16:44:30;32.35;;;11.63;;
32746;SDS011;19118;50.860;13.662;2022-12-18T16:49:30;41.15;;;14.18;;
32746;SDS011;19118;50.860;13.662;2022-12-18T16:54:31;301.23;;;70.78;;
32746;SDS011;19118;50.860;13.662;2022-12-18T16:59:32;72.80;;;23.70;;
32746;SDS011;19118;50.860;13.662;2022-12-18T17:04:33;93.00;;;27.95;;
32746;SDS011;19118;50.860;13.662;2022-12-18T17:09:33;64.80;;;20.55;;
32746;SDS011;19118;50.860;13.662;2022-12-18T17:14:34;44.58;;;15.75;;
32746;SDS011;19118;50.860;13.662;2022-12-18T17:19:35;39.45;;;14.57;;
32746;SDS011;19118;50.860;13.662;2022-12-18T17:24:36;50.22;;;17.40;;
32746;SDS011;19118;50.860;13.662;2022-12-18T17:29:36;34.30;;;12.68;;
32746;SDS011;19118;50.860;13.662;2022-12-18T17:34:36;29.38;;;12.35;;
32746;SDS011;19118;50.860;13.662;2022-12-18T17:39:37;28.98;;;11.70;;
32746;SDS011;19118;50.860;13.662;2022-12-18T17:44:38;46.65;;;19.77;;
32746;SDS011;19118;50.860;13.662;2022-12-18T17:49:38;42.60;;;17.90;;
32746;SDS011;19118;50.860;13.662;2022-12-18T17:54:40;44.97;;;16.55;;
32746;SDS011;19118;50.860;13.662;2022-12-18T17:59:42;42.88;;;15.70;;
32746;SDS011;19118;50.860;13.662;2022-12-18T18:04:43;32.58;;;13.07;;
32746;SDS011;19118;50.860;13.662;2022-12-18T18:09:43;55.00;;;16.88;;
32746;SDS011;19118;50.860;13.662;2022-12-18T18:14:43;44.50;;;15.82;;
32746;SDS011;19118;50.860;13.662;2022-12-18T18:19:44;66.53;;;22.65;;
32746;SDS011;19118;50.860;13.662;2022-12-18T18:24:44;51.95;;;17.85;;
32746;SDS011;19118;50.860;13.662;2022-12-18T18:29:46;33.95;;;13.52;;
32746;SDS011;19118;50.860;13.662;2022-12-18T18:34:46;19.00;;;8.52;;
32746;SDS011;19118;50.860;13.662;2022-12-18T18:39:47;20.33;;;9.55;;
32746;SDS011;19118;50.860;13.662;2022-12-18T18:44:47;26.48;;;8.75;;
32746;SDS011;19118;50.860;13.662;2022-12-18T18:49:48;15.98;;;7.78;;
32746;SDS011;19118;50.860;13.662;2022-12-18T18:54:48;18.25;;;8.32;;
32746;SDS011;19118;50.860;13.662;2022-12-18T18:59:49;19.00;;;6.70;;
32746;SDS011;19118;50.860;13.662;2022-12-18T19:04:49;22.38;;;10.20;;
32746;SDS011;19118;50.860;13.662;2022-12-18T19:09:49;30.02;;;10.77;;
32746;SDS011;19118;50.860;13.662;2022-12-18T19:14:53;31.30;;;11.65;;
32746;SDS011;19118;50.860;13.662;2022-12-18T19:19:53;26.65;;;10.63;;
32746;SDS011;19118;50.860;13.662;2022-12-18T19:24:54;26.40;;;9.65;;
32746;SDS011;19118;50.860;13.662;2022-12-18T19:29:54;22.23;;;10.25;;
32746;SDS011;19118;50.860;13.662;2022-12-18T19:34:55;27.45;;;11.02;;
32746;SDS011;19118;50.860;13.662;2022-12-18T19:39:56;21.95;;;9.57;;
32746;SDS011;19118;50.860;13.662;2022-12-18T19:44:56;14.95;;;6.40;;
32746;SDS011;19118;50.860;13.662;2022-12-18T19:49:57;6.32;;;3.33;;
32746;SDS011;19118;50.860;13.662;2022-12-18T19:54:57;8.52;;;2.10;;
32746;SDS011;19118;50.860;13.662;2022-12-18T19:59:57;4.15;;;2.00;;
32746;SDS011;19118;50.860;13.662;2022-12-18T20:04:58;4.78;;;1.17;;
32746;SDS011;19118;50.860;13.662;2022-12-18T20:09:58;3.05;;;1.50;;
32746;SDS011;19118;50.860;13.662;2022-12-18T20:14:59;4.30;;;1.02;;
32746;SDS011;19118;50.860;13.662;2022-12-18T20:20:00;2.65;;;1.35;;
32746;SDS011;19118;50.860;13.662;2022-12-18T20:25:00;4.35;;;1.75;;
32746;SDS011;19118;50.860;13.662;2022-12-18T20:30:00;2.42;;;1.23;;
32746;SDS011;19118;50.860;13.662;2022-12-18T20:35:01;4.72;;;1.75;;
32746;SDS011;19118;50.860;13.662;2022-12-18T20:40:01;3.17;;;1.42;;
32746;SDS011;19118;50.860;13.662;2022-12-18T20:45:02;5.03;;;1.50;;
32746;SDS011;19118;50.860;13.662;2022-12-18T20:50:04;2.10;;;1.23;;
32746;SDS011;19118;50.860;13.662;2022-12-18T20:55:05;3.60;;;1.60;;
32746;SDS011;19118;50.860;13.662;2022-12-18T21:00:06;6.03;;;2.47;;
32746;SDS011;19118;50.860;13.662;2022-12-18T21:05:07;8.82;;;1.92;;
32746;SDS011;19118;50.860;13.662;2022-12-18T21:10:08;6.15;;;2.60;;
32746;SDS011;19118;50.860;13.662;2022-12-18T21:15:08;5.97;;;3.22;;
32746;SDS011;19118;50.860;13.662;2022-12-18T21:20:09;4.18;;;1.65;;
32746;SDS011;19118;50.860;13.662;2022-12-18T21:25:10;4.90;;;1.83;;
32746;SDS011;19118;50.860;13.662;2022-12-18T21:30:10;3.65;;;1.45;;
32746;SDS011;19118;50.860;13.662;2022-12-18T21:35:11;4.95;;;2.03;;
32746;SDS011;19118;50.860;13.662;2022-12-18T21:40:11;2.90;;;1.38;;
32746;SDS011;19118;50.860;13.662;2022-12-18T21:45:12;3.70;;;1.65;;
32746;SDS011;19118;50.860;13.662;2022-12-18T21:50:13;3.13;;;1.63;;
32746;SDS011;19118;50.860;13.662;2022-12-18T21:55:13;3.50;;;1.92;;
32746;SDS011;19118;50.860;13.662;2022-12-18T22:00:14;4.30;;;1.60;;
32746;SDS011;19118;50.860;13.662;2022-12-18T22:05:15;2.97;;;1.33;;
32746;SDS011;19118;50.860;13.662;2022-12-18T22:10:15;3.05;;;1.30;;
32746;SDS011;19118;50.860;13.662;2022-12-18T22:15:16;5.13;;;2.03;;
32746;SDS011;19118;50.860;13.662;2022-12-18T22:20:17;5.68;;;2.05;;
32746;SDS011;19118;50.860;13.662;2022-12-18T22:25:18;5.55;;;1.90;;
32746;SDS011;19118;50.860;13.662;2022-12-18T22:30:18;4.28;;;2.15;;
32746;SDS011;19118;50.860;13.662;2022-12-18T22:35:18;2.38;;;1.77;;
32746;SDS011;19118;50.860;13.662;2022-12-18T22:40:21;6.90;;;2.65;;
32746;SDS011;19118;50.860;13.662;2022-12-18T22:45:26;7.32;;;3.28;;
32746;SDS011;19118;50.860;13.662;2022-12-18T22:50:26;9.25;;;2.85;;
32746;SDS011;19118;50.860;13.662;2022-12-18T22:55:27;7.50;;;3.30;;
32746;SDS011;19118;50.860;13.662;2022-12-18T23:00:27;11.25;;;3.88;;
32746;SDS011;19118;50.860;13.662;2022-12-18T23:05:28;8.15;;;3.92;;
32746;SDS011;19118;50.860;13.662;2022-12-18T23:10:30;14.32;;;4.35;;
32746;SDS011;19118;50.860;13.662;2022-12-18T23:15:30;9.35;;;4.30;;
32746;SDS011;19118;50.860;13.662;2022-12-18T23:20:31;12.15;;;4.70;;
32746;SDS011;19118;50.860;13.662;2022-12-18T23:25:33;7.82;;;3.92;;
32746;SDS011;19118;50.860;13.662;2022-12-18T23:30:33;7.55;;;3.28;;
32746;SDS011;19118;50.860;13.662;2022-12-18T23:35:34;9.88;;;4.10;;
32746;SDS011;19118;50.860;13.662;2022-12-18T23:40:34;8.70;;;3.97;;
32746;SDS011;19118;50.860;13.662;2022-12-18T23:45:38;9.75;;;4.55;;
32746;SDS011;19118;50.860;13.662;2022-12-18T23:50:38;7.53;;;3.58;;
32746;SDS011;19118;50.860;13.662;2022-12-18T23:55:42;13.02;;;4.70;;
